Latest Weather Observations for Cessnock Airport

IDN60801

Issued at 1:32 pm EST Wednesday 27 May 2015 (issued every 30 minutes, with the page automatically refreshed every 10 minutes)

About weather observations | Map of weather stations | Latest weather observations for NSW | Other Formats
Station Details ID: 061260 Name: CESSNOCK AIRPORT AWS Lat: -32.79 Lon: 151.34 Height: 61.0 m
Data from the previous 72 hours. | See also: Recent months at Cessnock Airport
Date/Time
EST
Temp
°C
App
Temp
°C
Dew
Point
Rel
Hum
%
Delta-T
°C
Wind Press
QNH
hPa
Press
MSL
hPa
Rain
since 9 am
mm
Dir
 
Spd
km/h
Gust
km/h
Spd
kts
Gust
kts
27/01:30pm 17.3 14.8 11.1 67 3.3 NNW 15 22 8 12 1022.3 1022.3 0.0
27/01:00pm 16.9 14.2 10.3 65 3.5 NW 15 20 8 11 1022.6 1022.5 0.0
27/12:30pm 17.0 14.7 10.6 66 3.4 NNW 13 24 7 13 1023.2 1023.1 0.0
27/12:00pm 17.4 15.3 11.2 67 3.3 NNW 13 20 7 11 1023.8 1023.7 0.0
27/11:30am 15.8 13.1 10.3 70 2.9 NNW 15 22 8 12 1024.1 1024.0 0.0
27/11:00am 15.9 13.3 10.7 71 2.8 NNW 15 24 8 13 1024.7 1024.6 0.0
27/10:30am 15.4 13.3 11.2 76 2.3 N 13 17 7 9 1024.8 1024.7 0.0
27/10:00am 14.4 12.5 10.6 78 2.0 N 11 15 6 8 1025.0 1025.0 0.0
27/09:30am 14.2 12.8 10.8 80 1.8 N 9 13 5 7 1025.3 1025.3 0.0
27/09:00am 12.6 10.9 10.0 84 1.3 N 9 11 5 6 1025.1 1025.1 0.0
27/08:30am 10.8 10.5 10.0 95 0.4 NW 2 7 1 4 1025.1 1025.1 0.0
27/08:00am 9.0 8.8 8.9 99 0.0 CALM 0 0 0 0 1024.8 1024.7 0.0
27/07:30am 8.0 6.8 7.9 99 0.0 WSW 4 6 2 3 1025.0 1025.0 0.0
27/07:00am 6.2 5.3 5.9 98 0.1 CALM 0 0 0 0 1024.4 1024.3 0.0
27/06:30am 6.9 6.1 6.6 98 0.1 CALM 0 0 0 0 1024.5 1024.4 0.0
27/06:00am 7.5 6.9 7.2 98 0.1 CALM 0 0 0 0 1024.4 1024.3 0.0
27/05:30am 8.1 7.6 7.8 98 0.1 CALM 0 0 0 0 1024.5 1024.4 0.0
27/05:00am 8.6 8.2 8.3 98 0.1 CALM 0 0 0 0 1024.1 1024.0 0.0
27/04:30am 8.5 8.1 8.1 97 0.2 CALM 0 0 0 0 1024.2 1024.1 0.0
27/04:00am 9.0 8.7 8.7 98 0.1 CALM 0 0 0 0 1024.2 1024.1 0.0
27/03:30am 8.6 8.2 8.3 98 0.1 CALM 0 0 0 0 1024.4 1024.3 0.0
27/03:00am 8.3 7.8 8.0 98 0.1 CALM 0 0 0 0 1024.6 1024.5 0.0
27/02:30am 8.5 8.1 8.1 97 0.2 CALM 0 0 0 0 1024.6 1024.5 0.0
27/02:00am 8.9 8.6 8.6 98 0.1 CALM 0 0 0 0 1024.8 1024.7 0.0
27/01:30am 8.5 6.9 8.1 97 0.2 SW 6 9 3 5 1024.9 1024.9 0.0
27/01:00am 8.7 7.2 8.3 97 0.2 NNW 6 9 3 5 1024.9 1024.9 0.0
27/12:30am 9.3 7.7 8.8 97 0.2 W 7 11 4 6 1025.6 1025.6 0.0
27/12:00am 9.5 8.5 8.7 95 0.4 NE 4 7 2 4 1025.9 1025.9 0.0
 
Date/Time
EST
Temp
°C
App
Temp
°C
Dew
Point
Rel
Hum
%
Delta-T
°C
Wind Press
QNH
hPa
Press
MSL
hPa
Rain
since 9 am
mm
Dir
 
Spd
km/h
Gust
km/h
Spd
kts
Gust
kts
26/11:30pm 10.3 9.1 9.4 94 0.5 NNW 6 9 3 5 1025.8 1025.8 0.0
26/11:00pm 10.1 8.8 9.2 94 0.4 SW 6 9 3 5 1025.9 1025.9 0.0
26/10:30pm 10.3 8.5 9.4 94 0.5 NW 9 17 5 9 1025.8 1025.8 0.0
26/10:00pm 9.9 8.6 9.1 95 0.4 NW 6 9 3 5 1025.6 1025.6 0.0
26/09:30pm 9.5 9.2 8.7 95 0.4 CALM 0 0 0 0 1026.1 1026.1 0.0
26/09:00pm 9.7 9.4 8.8 94 0.4 CALM 0 0 0 0 1026.2 1026.2 0.0
26/08:30pm 10.2 10.0 9.1 93 0.5 CALM 0 0 0 0 1026.3 1026.3 0.0
26/08:00pm 10.5 10.4 9.3 92 0.6 CALM 0 0 0 0 1026.3 1026.3 0.0
26/07:30pm 11.0 9.5 9.3 89 0.8 WSW 7 9 4 5 1026.4 1026.4 0.0
26/07:00pm 12.2 10.5 9.8 85 1.2 SW 9 9 5 5 1026.1 1026.1 0.0
26/06:30pm 12.6 11.4 9.6 82 1.5 SW 6 7 3 4 1026.2 1026.2 0.0
26/06:00pm 12.7 12.7 9.7 82 1.5 CALM 0 0 0 0 1026.2 1026.2 0.0
26/05:30pm 13.0 11.9 9.8 81 1.6 W 6 7 3 4 1026.0 1026.0 0.0
26/05:00pm 14.2 13.4 9.8 75 2.3 WNW 4 7 2 4 1025.7 1025.7 0.0
26/04:30pm 15.7 14.3 9.4 66 3.3 N 7 9 4 5 1025.4 1025.4 0.0
26/04:00pm 17.0 15.2 7.9 55 4.6 N 7 9 4 5 1025.6 1025.6 0.0
26/03:30pm 18.1 16.1 8.7 54 4.9 N 9 13 5 7 1026.0 1026.0 0.0
26/03:00pm 18.6 18.3 8.8 53 5.1 CALM 0 0 0 0 1026.2 1026.2 0.0
26/02:30pm 18.3 17.0 9.1 55 4.8 NW 6 9 3 5 1026.3 1026.3 0.0
26/02:00pm 17.5 16.0 8.6 56 4.6 SSW 6 9 3 5 1026.3 1026.3 0.0
26/01:30pm 17.6 15.6 8.7 56 4.6 NW 9 13 5 7 1026.5 1026.5 0.0
26/01:00pm 17.6 15.9 9.8 60 4.1 N 9 15 5 8 1026.8 1026.8 0.0
26/12:30pm 17.0 15.6 9.7 62 3.8 NNE 7 11 4 6 1027.3 1027.3 0.0
26/12:00pm 16.6 15.8 9.5 63 3.7 WNW 4 7 2 4 1027.8 1027.8 0.0
26/11:30am 16.2 15.0 9.4 64 3.5 N 6 13 3 7 1028.4 1028.4 0.0
26/11:00am 15.4 14.3 10.0 70 2.8 N 6 11 3 6 1028.8 1028.8 0.0
26/10:30am 14.5 13.2 9.9 74 2.4 N 7 9 4 5 1029.2 1029.2 0.0
26/10:00am 12.3 11.2 9.9 85 1.2 NE 6 9 3 5 1029.3 1029.3 0.0
26/09:30am 10.8 9.6 9.6 92 0.6 NE 6 9 3 5 1029.4 1029.4 0.0
26/09:00am 9.4 7.8 8.9 97 0.2 NE 7 9 4 5 1029.3 1029.3 0.0
26/08:30am 8.4 6.9 8.3 99 0.0 NNE 6 7 3 4 1029.3 1029.3 0.0
26/08:00am 6.5 5.3 6.4 99 0.0 NW 2 6 1 3 1029.3 1029.3 0.0
26/07:30am 4.7 3.5 4.6 99 0.0 CALM 0 0 0 0 1029.0 1029.0 0.0
26/07:00am 3.4 2.0 3.3 99 0.0 CALM 0 0 0 0 1028.5 1028.5 0.0
26/06:30am 3.4 0.2 3.3 99 0.0 WSW 9 13 5 7 1028.6 1028.6 0.0
26/06:00am 3.6 2.2 3.5 99 0.0 CALM 0 0 0 0 1028.3 1028.3 0.0
26/05:30am 4.2 2.9 4.1 99 0.0 CALM 0 0 0 0 1028.3 1028.3 0.0
26/05:00am 4.4 2.0 4.3 99 0.0 WSW 6 7 3 4 1028.2 1028.2 0.0
26/04:30am 4.3 2.6 4.2 99 0.0 WSW 2 7 1 4 1028.1 1028.1 0.0
26/04:00am 4.8 3.6 4.7 99 0.0 CALM 0 0 0 0 1028.1 1028.1 0.0
26/03:30am 4.8 3.6 4.7 99 0.0 CALM 0 0 0 0 1028.2 1028.2 0.0
26/03:00am 4.7 3.5 4.4 98 0.1 CALM 0 0 0 0 1028.2 1028.2 0.0
26/02:30am 5.1 3.9 4.8 98 0.1 CALM 0 0 0 0 1028.3 1028.3 0.0
26/02:00am 5.8 3.7 5.7 99 0.0 SW 6 9 3 5 1028.5 1028.5 0.0
26/01:30am 6.1 5.2 6.0 99 0.0 CALM 0 0 0 0 1028.4 1028.4 0.0
26/01:00am 6.1 5.2 6.0 99 0.0 CALM 0 6 0 3 1028.6 1028.6 0.0
26/12:30am 6.0 5.0 5.7 98 0.1 CALM 0 0 0 0 1028.7 1028.7 0.0
26/12:00am 6.4 5.5 6.0 97 0.2 CALM 0 0 0 0 1028.7 1028.7 0.0
 
Date/Time
EST
Temp
°C
App
Temp
°C
Dew
Point
Rel
Hum
%
Delta-T
°C
Wind Press
QNH
hPa
Press
MSL
hPa
Rain
since 9 am
mm
Dir
 
Spd
km/h
Gust
km/h
Spd
kts
Gust
kts
25/11:30pm 7.2 6.5 6.9 98 0.1 CALM 0 0 0 0 1028.9 1028.9 0.0
25/11:00pm 7.6 5.6 7.2 97 0.2 WSW 7 11 4 6 1029.1 1029.1 0.0
25/10:30pm 8.0 6.3 7.6 97 0.2 WSW 6 6 3 3 1028.9 1028.9 0.0
25/10:00pm 8.4 7.6 8.0 97 0.2 SSW 2 6 1 3 1029.0 1029.0 0.0
25/09:30pm 8.7 8.3 8.1 96 0.3 CALM 0 4 0 2 1029.0 1029.0 0.0
25/09:00pm 9.7 9.5 9.1 96 0.3 CALM 0 0 0 0 1029.1 1029.1 0.0
25/08:30pm 10.3 9.4 9.4 94 0.5 WSW 4 7 2 4 1029.2 1029.2 0.0
25/08:00pm 10.9 10.5 9.7 92 0.6 W 2 6 1 3 1029.2 1029.2 0.0
25/07:30pm 12.1 12.1 11.0 93 0.6 ESE 2 7 1 4 1029.2 1029.2 0.0
25/07:00pm 12.2 10.7 10.6 90 0.8 WSW 9 11 5 6 1028.9 1028.9 0.0
25/06:30pm 12.8 12.1 11.4 91 0.7 SW 6 11 3 6 1028.2 1028.2 0.0
25/06:00pm 13.2 12.9 11.4 89 0.9 SW 4 9 2 5 1027.8 1027.8 0.0
25/05:30pm 13.7 12.8 11.2 85 1.3 WSW 7 9 4 5 1028.0 1028.0 0.0
25/05:00pm 14.9 15.4 11.5 80 1.8 CALM 0 0 0 0 1027.9 1027.9 0.0
25/04:30pm 16.1 16.6 11.7 75 2.4 CALM 0 0 0 0 1027.9 1027.9 0.0
25/04:00pm 17.7 16.8 10.8 64 3.7 NNE 6 7 3 4 1027.7 1027.7 0.0
25/03:30pm 19.1 18.1 10.4 57 4.7 N 6 11 3 6 1027.9 1027.9 0.0
25/03:00pm 18.4 16.1 10.3 59 4.3 NNE 13 17 7 9 1027.9 1027.9 0.0
25/02:30pm 18.8 17.4 10.9 60 4.3 N 9 13 5 7 1028.5 1028.5 0.0
25/02:00pm 18.4 16.4 10.3 59 4.3 N 11 15 6 8 1028.5 1028.5 0.0
25/01:30pm 17.4 15.7 9.8 61 4.0 N 9 13 5 7 1028.9 1028.9 0.0
25/01:00pm 17.9 16.2 9.8 59 4.3 NNW 9 13 5 7 1029.1 1029.1 0.0
25/12:30pm 17.4 16.3 9.8 61 4.0 NNE 6 13 3 7 1029.4 1029.4 0.0
25/12:00pm 17.5 16.4 10.6 64 3.7 NNW 7 11 4 6 1030.0 1030.0 0.0
25/11:30am 16.2 15.3 10.5 69 3.0 N 6 9 3 5 1030.6 1030.6 0.0
25/11:00am 15.5 13.9 10.1 70 2.8 N 9 15 5 8 1031.2 1031.2 0.0
25/10:30am 14.0 12.3 10.0 77 2.1 N 9 13 5 7 1031.7 1031.7 0.0
25/10:00am 12.8 11.2 10.3 85 1.3 N 9 11 5 6 1032.2 1032.2 0.0
25/09:30am 11.5 10.7 9.8 89 0.9 NNE 4 7 2 4 1032.1 1032.1 0.0
25/09:00am 9.6 9.0 9.0 96 0.3 NW 2 9 1 5 1032.3 1032.3 0.0
25/08:30am 8.1 7.6 8.0 99 0.0 CALM 0 0 0 0 1031.9 1031.9 0.0
25/08:00am 7.1 6.4 7.0 99 0.0 CALM 0 0 0 0 1031.7 1031.7 0.0
25/07:30am 5.8 4.8 5.7 99 0.0 CALM 0 0 0 0 1031.6 1031.6 0.0
25/07:00am 5.3 4.2 5.2 99 0.0 CALM 0 0 0 0 1031.4 1031.4 0.0
25/06:30am 4.8 3.6 4.5 98 0.1 CALM 0 0 0 0 1031.3 1031.3 0.0
25/06:00am 5.6 4.6 5.5 99 0.0 CALM 0 0 0 0 1031.1 1031.1 0.0
25/05:30am 5.2 4.1 5.1 99 0.0 CALM 0 0 0 0 1030.6 1030.6 0.0
25/05:00am 5.2 4.1 5.1 99 0.0 CALM 0 0 0 0 1030.9 1030.9 0.0
25/04:30am 5.1 4.0 5.0 99 0.0 CALM 0 0 0 0 1031.1 1031.1 0.0
25/04:00am 5.1 4.0 5.0 99 0.0 CALM 0 0 0 0 1031.0 1031.0 0.0
25/03:30am 4.5 2.8 4.2 98 0.1 WSW 2 7 1 4 1030.9 1030.9 0.0
25/03:00am 4.7 3.5 4.4 98 0.1 CALM 0 0 0 0 1031.0 1031.0 0.0
25/02:30am 5.4 4.3 5.1 98 0.1 CALM 0 0 0 0 1031.3 1031.3 0.0
25/02:00am 5.7 4.7 5.4 98 0.1 CALM 0 0 0 0 1031.3 1031.3 0.0
25/01:30am 5.4 4.3 5.1 98 0.1 CALM 0 0 0 0 1031.1 1031.1 0.0
25/01:00am 6.0 5.0 5.7 98 0.1 CALM 0 0 0 0 1031.5 1031.5 0.0
25/12:30am 6.2 3.6 5.9 98 0.1 WSW 9 11 5 6 1031.9 1031.9 0.0
25/12:00am 5.9 4.9 5.6 98 0.1 CALM 0 0 0 0 1032.0 1032.0 0.0
 
Date/Time
EST
Temp
°C
App
Temp
°C
Dew
Point
Rel
Hum
%
Delta-T
°C
Wind Press
QNH
hPa
Press
MSL
hPa
Rain
since 9 am
mm
Dir
 
Spd
km/h
Gust
km/h
Spd
kts
Gust
kts
24/11:30pm 6.1 5.1 5.8 98 0.1 CALM 0 0 0 0 1031.9 1031.9 0.0
24/11:00pm 6.2 4.1 5.8 97 0.2 WNW 6 7 3 4 1031.7 1031.7 0.0
24/10:30pm 7.3 6.6 7.0 98 0.1 CALM 0 0 0 0 1031.7 1031.7 0.0
24/10:00pm 6.7 5.8 6.0 95 0.3 CALM 0 0 0 0 1031.9 1031.9 0.0
24/09:30pm 7.7 7.0 7.1 96 0.3 CALM 0 0 0 0 1032.2 1032.2 0.0
24/09:00pm 8.7 6.9 7.9 95 0.4 WSW 7 11 4 6 1032.2 1032.2 0.0
24/08:30pm 8.7 6.5 7.9 95 0.4 WSW 9 9 5 5 1032.0 1032.0 0.0
24/08:00pm 9.0 8.5 7.9 93 0.5 CALM 0 6 0 3 1031.6 1031.6 0.0
24/07:30pm 9.9 9.7 9.0 94 0.4 CALM 0 0 0 0 1031.4 1031.4 0.0
24/07:00pm 10.7 9.4 9.3 91 0.7 SW 6 7 3 4 1031.3 1031.3 0.0
24/06:30pm 11.6 10.0 10.2 91 0.7 WSW 9 11 5 6 1031.3 1031.3 0.0
24/06:00pm 11.8 9.8 10.2 90 0.8 WSW 11 11 6 6 1031.0 1031.0 0.0
24/05:30pm 12.1 12.1 9.8 86 1.2 CALM 0 0 0 0 1030.7 1030.7 0.0
24/05:00pm 13.1 13.2 10.3 83 1.4 CALM 0 0 0 0 1030.5 1030.5 0.0
24/04:30pm 14.8 13.5 9.8 72 2.6 SE 7 9 4 5 1030.3 1030.3 0.0
24/04:00pm 16.1 14.0 9.8 66 3.3 ESE 11 15 6 8 1030.1 1030.1 0.0
24/03:30pm 17.0 15.5 10.6 66 3.4 ESE 9 13 5 7 1030.0 1030.0 0.0
24/03:00pm 17.5 15.4 9.7 60 4.1 ESE 11 15 6 8 1030.0 1030.0 0.0
24/02:30pm 18.9 17.6 7.7 48 5.7 NE 4 11 2 6 1029.8 1029.8 0.0
24/02:00pm 19.0 16.9 8.1 49 5.6 N 9 13 5 7 1029.7 1029.7 0.0

Other Formats:

Comma delimited format used in spreadsheet applications
http://www.bom.gov.au/fwo/IDN60801/IDN60801.95771.axf

JavaScript Object Notation format (JSON) in row-major order
http://www.bom.gov.au/fwo/IDN60801/IDN60801.95771.json